Main page
METAR-TAF:

METAR-TAF

Airports :

Helsinki Airport

Helsinki, Finland

latitude: 60-19N, longitude: 024-58E, elevation: 51 m

Current weather observation

The report was made 12 minutes ago, at 12:20 UTC
Wind 9 kt from the South, varying between South/Southeast and Southwest
Temperature 21°C
Humidity 56%
Pressure 1027 hPa
Visibility 10 km or more
Few clouds at a height of 3500 ft

METAR: EFHK 251220Z 19009KT 160V230 9999 FEW035 21/12 Q1027 NOSIG

Time: 15:32 (12:32 UTC)

Forecast

The report was made 1 hour and 4 minutes ago, at 11:28 UTC
Forecast valid from 25 at 12 UTC to 26 at 12 UTC
Wind 9 kt from the South/Southwest
Visibility 10 km or more
Few clouds at a height of 3000 ft
Broken clouds at a height of 20000 ft
Probability 30%
from 26 at 02 UTC to 26 at 05 UTC
Visibility: 3000 m
Broken clouds at a height of 500 ft
mist

TAF: EFHK 251128Z 2512/2612 21009KT 9999 FEW030 BKN200 PROB30 2602/2605 3000 BR BKN005

Weather observations and forecasts of more than 4000 airports (METAR and TAF reports).

The available stations are represented by yellow and red dots on the map.

Hover mouse over dot to see the name of the station.

Then click to see weather observations and forecasts.

To change the map : click on the green buttons with a black cross to zoom in, on the green button with a dash to zoom out, or on the green arrows for adjacent maps.


METAR-TAF: